createdAt,value
2023-04-21T00:01:16.667Z,6.29
2023-04-21T00:03:48.091Z,6.30
2023-04-21T00:06:22.964Z,6.28
2023-04-21T00:08:52.045Z,6.28
2023-04-21T00:11:21.029Z,6.25
2023-04-21T00:13:49.589Z,6.21
2023-04-21T00:16:18.267Z,6.20
2023-04-21T00:18:49.217Z,6.18
2023-04-21T00:21:17.968Z,6.13
2023-04-21T00:23:47.635Z,6.11
2023-04-21T00:26:16.070Z,6.05
2023-04-21T00:28:44.955Z,5.93
2023-04-21T00:31:13.939Z,5.82
2023-04-21T00:33:42.479Z,5.73
2023-04-21T00:36:12.486Z,5.68
2023-04-21T00:38:40.871Z,5.70
2023-04-21T00:41:09.609Z,5.73
2023-04-21T00:43:38.721Z,5.71
2023-04-21T00:46:08.018Z,5.72
2023-04-21T00:48:36.908Z,5.74
2023-04-21T00:51:05.746Z,5.73
2023-04-21T00:53:36.000Z,5.66
2023-04-21T00:56:05.173Z,5.65
2023-04-21T00:58:34.514Z,5.65
2023-04-21T01:01:03.053Z,5.63
2023-04-21T01:03:32.629Z,5.64
2023-04-21T01:06:01.851Z,5.68
2023-04-21T01:08:30.606Z,5.68
2023-04-21T01:11:00.323Z,5.65
2023-04-21T01:13:28.995Z,5.66
2023-04-21T01:15:57.781Z,5.64
2023-04-21T01:18:26.728Z,5.63
2023-04-21T01:20:55.383Z,5.64
2023-04-21T01:23:25.783Z,5.64
2023-04-21T01:25:55.280Z,5.50
2023-04-21T01:28:24.446Z,5.59
2023-04-21T01:30:53.773Z,5.50
2023-04-21T01:33:22.934Z,5.49
2023-04-21T01:35:51.779Z,5.51
2023-04-21T01:38:20.527Z,5.51
2023-04-21T01:40:53.759Z,5.55
2023-04-21T01:43:26.775Z,5.55
2023-04-21T01:45:55.510Z,5.44
2023-04-21T01:48:24.099Z,5.53
2023-04-21T01:50:55.124Z,5.51
2023-04-21T01:53:23.841Z,5.37
2023-04-21T01:55:54.116Z,5.49
2023-04-21T01:58:22.697Z,5.51
2023-04-21T02:00:51.121Z,5.51
2023-04-21T02:03:20.143Z,5.50
2023-04-21T02:05:48.613Z,5.48
2023-04-21T02:08:18.603Z,5.46
2023-04-21T02:10:47.226Z,5.47
2023-04-21T02:13:17.484Z,5.47
2023-04-21T02:15:46.688Z,5.46
2023-04-21T02:18:17.053Z,5.43
2023-04-21T02:20:45.734Z,5.41
2023-04-21T02:23:14.434Z,5.41
2023-04-21T02:25:43.286Z,5.37
2023-04-21T02:28:14.700Z,5.37
2023-04-21T02:30:46.414Z,5.36
2023-04-21T02:33:15.021Z,5.36
2023-04-21T02:35:44.047Z,5.34
2023-04-21T02:38:13.124Z,5.36
2023-04-21T02:40:42.956Z,5.35
2023-04-21T02:43:12.976Z,5.36
2023-04-21T02:45:42.218Z,5.32
2023-04-21T02:48:12.564Z,5.29
2023-04-21T02:50:41.583Z,5.24
2023-04-21T02:53:10.513Z,5.25
2023-04-21T02:55:39.240Z,5.22
2023-04-21T02:58:08.356Z,5.18
2023-04-21T03:00:39.080Z,5.20
2023-04-21T03:03:07.974Z,5.19
2023-04-21T03:05:37.850Z,5.22
2023-04-21T03:08:07.111Z,5.22
2023-04-21T03:10:35.817Z,5.19
2023-04-21T03:13:04.634Z,5.19
2023-04-21T03:15:33.402Z,5.21
2023-04-21T03:18:02.070Z,5.21
2023-04-21T03:20:31.054Z,5.20
2023-04-21T03:23:01.238Z,5.18
2023-04-21T03:25:30.043Z,5.15
2023-04-21T03:27:58.756Z,5.13
2023-04-21T03:30:27.716Z,5.08
2023-04-21T03:32:56.749Z,5.02
2023-04-21T03:35:25.484Z,4.99
2023-04-21T03:37:54.108Z,4.97
2023-04-21T03:40:24.417Z,4.95
2023-04-21T03:42:53.106Z,4.92
2023-04-21T03:45:22.952Z,4.90
2023-04-21T03:47:55.142Z,4.88
2023-04-21T03:50:23.896Z,4.80
2023-04-21T03:52:52.666Z,4.71
2023-04-21T03:55:21.353Z,4.63
2023-04-21T03:57:51.633Z,4.62
2023-04-21T04:00:21.435Z,4.65
2023-04-21T04:02:50.742Z,4.65
2023-04-21T04:05:19.896Z,4.63
2023-04-21T04:07:48.618Z,4.60
2023-04-21T04:10:17.397Z,4.67
2023-04-21T04:12:45.882Z,4.71
2023-04-21T04:15:16.482Z,4.73
2023-04-21T04:17:45.488Z,4.76
2023-04-21T04:20:14.271Z,4.81
2023-04-21T04:22:42.745Z,4.86
2023-04-21T04:25:13.100Z,4.87
2023-04-21T04:27:41.892Z,4.90
2023-04-21T04:30:11.671Z,4.79
2023-04-21T04:32:41.946Z,4.92
2023-04-21T04:35:13.237Z,4.96
2023-04-21T04:37:42.409Z,4.99
2023-04-21T04:40:12.448Z,5.08
2023-04-21T04:42:41.103Z,5.14
2023-04-21T04:45:11.620Z,5.18
2023-04-21T04:47:46.818Z,5.22
2023-04-21T04:50:15.746Z,5.25
2023-04-21T04:52:47.062Z,5.27
2023-04-21T04:55:16.046Z,5.29
2023-04-21T04:57:45.147Z,5.29
2023-04-21T05:00:14.845Z,5.34
2023-04-21T05:02:45.108Z,5.35
2023-04-21T05:05:14.152Z,5.39
2023-04-21T05:07:43.076Z,5.48
2023-04-21T05:10:11.737Z,5.53
2023-04-21T05:12:40.693Z,5.57
2023-04-21T05:15:11.174Z,5.64
2023-04-21T05:17:39.868Z,5.72
2023-04-21T05:20:11.104Z,5.82
2023-04-21T05:22:40.522Z,5.83
2023-04-21T05:25:09.477Z,5.89
2023-04-21T05:27:38.362Z,5.95
2023-04-21T05:30:07.636Z,6.01
2023-04-21T05:32:36.471Z,6.08
2023-04-21T05:35:05.216Z,6.15
2023-04-21T05:37:35.133Z,6.25
2023-04-21T05:40:04.145Z,6.35
2023-04-21T05:42:32.921Z,6.44
2023-04-21T05:45:01.593Z,6.56
2023-04-21T05:47:30.190Z,6.65
2023-04-21T05:49:58.943Z,6.74
2023-04-21T05:52:27.628Z,6.78
2023-04-21T05:54:57.626Z,6.93
2023-04-21T05:57:26.337Z,7.06
2023-04-21T05:59:54.919Z,7.23
2023-04-21T06:02:24.259Z,7.36
2023-04-21T06:04:54.058Z,7.45
2023-04-21T06:07:22.964Z,7.55
2023-04-21T06:09:52.481Z,7.68
2023-04-21T06:12:22.620Z,7.81
2023-04-21T06:14:50.851Z,7.92
2023-04-21T06:17:20.314Z,8.03
2023-04-21T06:19:53.302Z,8.20
2023-04-21T06:22:22.422Z,8.38
2023-04-21T06:24:51.522Z,8.51
2023-04-21T06:27:20.136Z,8.70
2023-04-21T06:29:50.516Z,8.96
2023-04-21T06:32:19.263Z,9.21
2023-04-21T06:34:47.767Z,9.50
2023-04-21T06:37:16.764Z,9.77
2023-04-21T06:39:45.643Z,10.05
2023-04-21T06:42:14.683Z,10.30
2023-04-21T06:44:43.358Z,10.54
2023-04-21T06:47:13.463Z,10.72
2023-04-21T06:49:42.508Z,10.85
2023-04-21T06:52:11.739Z,11.08
2023-04-21T06:54:42.198Z,11.32
2023-04-21T06:57:10.599Z,11.45
2023-04-21T06:59:39.100Z,11.51
2023-04-21T07:02:07.901Z,11.44
2023-04-21T07:04:38.191Z,11.67
2023-04-21T07:07:06.928Z,11.86
2023-04-21T07:09:36.201Z,11.99
2023-04-21T07:12:04.729Z,12.14
2023-04-21T07:14:34.064Z,12.26
2023-04-21T07:17:02.576Z,12.44
2023-04-21T07:19:34.384Z,12.59
2023-04-21T07:22:04.672Z,12.73
2023-04-21T07:24:35.832Z,12.80
2023-04-21T07:27:04.671Z,12.78
2023-04-21T07:29:37.628Z,12.73
2023-04-21T07:32:06.552Z,12.94
2023-04-21T07:34:35.114Z,13.16
2023-04-21T07:37:05.956Z,13.03
2023-04-21T07:39:34.922Z,12.92
2023-04-21T07:42:04.005Z,12.87
2023-04-21T07:44:32.584Z,12.90
2023-04-21T07:47:01.528Z,13.01
2023-04-21T07:49:30.587Z,13.08
2023-04-21T07:51:59.503Z,13.25
2023-04-21T07:54:31.620Z,13.37
2023-04-21T07:57:01.990Z,13.54
2023-04-21T07:59:30.458Z,13.61
2023-04-21T08:01:59.800Z,13.63
2023-04-21T08:04:29.330Z,13.70
2023-04-21T08:06:58.118Z,13.77
2023-04-21T08:09:27.487Z,13.79
2023-04-21T08:12:00.176Z,13.94
2023-04-21T08:14:28.837Z,14.12
2023-04-21T08:16:57.501Z,14.05
2023-04-21T08:19:26.219Z,14.17
2023-04-21T08:21:54.697Z,14.31
2023-04-21T08:24:23.619Z,14.22
2023-04-21T08:26:52.516Z,14.37
2023-04-21T08:29:23.931Z,14.42
2023-04-21T08:31:52.704Z,14.47
2023-04-21T08:34:23.129Z,14.59
2023-04-21T08:36:53.789Z,14.79
2023-04-21T08:39:22.850Z,14.75
2023-04-21T08:41:52.779Z,14.78
2023-04-21T08:44:23.781Z,14.92
2023-04-21T08:46:52.991Z,15.22
2023-04-21T08:49:22.310Z,15.29
2023-04-21T08:51:51.708Z,15.28
2023-04-21T08:54:20.451Z,15.38
2023-04-21T08:56:49.586Z,15.55
2023-04-21T08:59:18.327Z,15.69
2023-04-21T09:02:11.128Z,15.66
2023-04-21T09:04:41.411Z,15.60
2023-04-21T09:07:10.348Z,15.79
2023-04-21T09:09:56.891Z,15.98
2023-04-21T09:12:25.676Z,15.89
2023-04-21T09:14:54.080Z,16.02
2023-04-21T09:17:25.886Z,16.19
2023-04-21T09:19:54.440Z,16.49
2023-04-21T09:22:28.707Z,16.58
2023-04-21T09:25:00.330Z,16.58
2023-04-21T09:27:30.244Z,16.55
2023-04-21T09:30:04.549Z,16.69
2023-04-21T09:32:39.583Z,16.43
2023-04-21T09:35:11.572Z,16.49
2023-04-21T09:37:44.777Z,16.65
2023-04-21T09:40:15.258Z,16.41
2023-04-21T09:42:45.076Z,16.47
2023-04-21T09:47:51.966Z,16.09
2023-04-21T09:50:51.177Z,16.30
2023-04-21T09:53:16.652Z,16.53
2023-04-21T09:55:49.669Z,16.53
2023-04-21T09:58:21.863Z,16.73
2023-04-21T10:00:51.055Z,17.18
2023-04-21T10:03:22.662Z,17.54
2023-04-21T10:05:51.614Z,17.59
2023-04-21T10:08:20.654Z,17.32
2023-04-21T10:10:50.683Z,17.55
2023-04-21T10:13:19.915Z,17.93
2023-04-21T10:15:48.529Z,18.41
2023-04-21T10:18:18.813Z,18.29
2023-04-21T10:20:56.734Z,18.50
2023-04-21T10:23:33.298Z,18.66
2023-04-21T10:26:11.834Z,18.98
2023-04-21T10:28:57.825Z,18.50
2023-04-21T10:31:34.947Z,19.18
2023-04-21T10:34:21.171Z,19.64
2023-04-21T10:37:16.538Z,19.18
2023-04-21T10:39:48.541Z,19.35
2023-04-21T10:42:30.828Z,18.87
2023-04-21T10:45:12.017Z,18.95
2023-04-21T10:47:44.628Z,19.17
2023-04-21T10:50:16.090Z,18.73
2023-04-21T10:52:55.176Z,18.39
2023-04-21T10:55:24.393Z,18.37
2023-04-21T10:57:53.048Z,18.36
2023-04-21T11:00:23.250Z,18.10
2023-04-21T11:03:03.495Z,18.36
2023-04-21T11:05:38.597Z,18.33
2023-04-21T11:08:15.874Z,18.37
2023-04-21T11:10:47.117Z,18.32
2023-04-21T11:13:16.088Z,18.34
2023-04-21T11:15:57.976Z,17.86
2023-04-21T11:18:43.564Z,17.59
2023-04-21T11:21:18.480Z,17.49
2023-04-21T11:23:53.428Z,17.78
2023-04-21T11:26:32.838Z,17.81
2023-04-21T11:29:06.242Z,17.80
2023-04-21T11:31:35.244Z,17.72
2023-04-21T11:34:05.487Z,18.06
2023-04-21T11:36:37.409Z,18.57
2023-04-21T11:39:12.105Z,18.79
2023-04-21T11:41:42.016Z,19.12
2023-04-21T11:44:11.024Z,19.19
2023-04-21T11:46:46.749Z,19.77
2023-04-21T11:49:17.574Z,19.67
2023-04-21T11:51:47.325Z,19.55
2023-04-21T11:54:22.124Z,19.39
2023-04-21T11:56:59.663Z,19.46
2023-04-21T11:59:30.119Z,19.36
2023-04-21T12:01:59.169Z,19.15
2023-04-21T12:04:27.649Z,18.53
2023-04-21T12:07:03.807Z,18.24
2023-04-21T12:09:37.998Z,18.21
2023-04-21T12:12:08.507Z,18.08
2023-04-21T12:14:37.295Z,18.16
2023-04-21T12:17:08.684Z,18.07
2023-04-21T12:19:39.753Z,18.14
2023-04-21T12:22:10.291Z,17.94
2023-04-21T12:24:40.883Z,17.92
2023-04-21T12:27:09.985Z,18.07
2023-04-21T12:29:39.424Z,18.48
2023-04-21T12:32:08.685Z,18.68
2023-04-21T12:34:37.798Z,18.63
2023-04-21T12:37:06.600Z,19.01
2023-04-21T12:39:35.877Z,19.26
2023-04-21T12:42:06.535Z,19.53
2023-04-21T12:44:35.631Z,19.46
2023-04-21T12:47:04.376Z,18.93
2023-04-21T12:49:33.553Z,19.08
2023-04-21T12:52:05.851Z,18.73
2023-04-21T12:54:35.278Z,18.18
2023-04-21T12:57:06.469Z,17.92
2023-04-21T12:59:35.291Z,18.31
2023-04-21T13:02:04.246Z,18.76
2023-04-21T13:04:35.431Z,18.81
2023-04-21T13:07:04.017Z,18.75
2023-04-21T13:09:33.049Z,19.15
2023-04-21T13:12:02.440Z,19.61
2023-04-21T13:14:32.858Z,19.89
2023-04-21T13:17:01.723Z,20.40
2023-04-21T13:19:31.431Z,20.56
2023-04-21T13:22:01.092Z,20.27
2023-04-21T13:24:30.043Z,19.76
2023-04-21T13:26:58.908Z,19.52
2023-04-21T13:29:30.452Z,19.29
2023-04-21T13:32:01.223Z,19.16
2023-04-21T13:34:32.316Z,18.76
2023-04-21T13:37:01.285Z,18.81
2023-04-21T13:39:30.185Z,18.77
2023-04-21T13:41:59.470Z,19.07
2023-04-21T13:44:28.372Z,19.15
2023-04-21T13:46:57.565Z,19.24
2023-04-21T13:49:28.465Z,19.15
2023-04-21T13:51:57.997Z,19.04
2023-04-21T13:54:27.860Z,18.99
2023-04-21T13:56:57.437Z,18.54
2023-04-21T13:59:26.003Z,18.52
2023-04-21T14:01:55.207Z,18.42
2023-04-21T14:04:24.067Z,18.51
2023-04-21T14:06:54.246Z,18.56
2023-04-21T14:09:22.885Z,18.54
2023-04-21T14:11:51.978Z,18.39
2023-04-21T14:14:37.480Z,18.36
2023-04-21T14:17:07.360Z,18.51
2023-04-21T14:19:36.884Z,18.88
2023-04-21T14:22:07.159Z,19.33
2023-04-21T14:24:36.089Z,19.76
2023-04-21T14:27:04.890Z,19.82
2023-04-21T14:29:33.716Z,20.26
2023-04-21T14:32:02.836Z,19.94
2023-04-21T14:34:31.600Z,19.38
2023-04-21T14:37:00.793Z,18.88
2023-04-21T14:39:30.888Z,18.47
2023-04-21T14:41:59.738Z,18.16
2023-04-21T14:44:28.706Z,18.06
2023-04-21T14:47:09.273Z,18.33
2023-04-21T14:49:40.250Z,18.79
2023-04-21T14:52:09.565Z,18.83
2023-04-21T14:54:39.957Z,18.92
2023-04-21T14:57:19.580Z,19.26
2023-04-21T14:59:51.025Z,19.37
2023-04-21T15:02:20.378Z,19.12
2023-04-21T15:04:49.396Z,18.57
2023-04-21T15:07:23.844Z,18.28
2023-04-21T15:09:55.748Z,17.99
2023-04-21T15:12:24.915Z,18.03
2023-04-21T15:14:53.826Z,18.06
2023-04-21T15:17:22.553Z,17.94
2023-04-21T15:19:51.853Z,17.93
2023-04-21T15:22:20.824Z,18.03
2023-04-21T15:24:50.329Z,18.04
2023-04-21T15:27:23.400Z,17.75
2023-04-21T15:29:51.961Z,17.74
2023-04-21T15:32:21.165Z,17.86
2023-04-21T15:34:49.941Z,17.95
2023-04-21T15:37:20.306Z,18.11
2023-04-21T15:39:48.869Z,18.45
2023-04-21T15:42:17.809Z,18.59
2023-04-21T15:44:48.492Z,18.75
2023-04-21T15:47:17.711Z,19.08
2023-04-21T15:49:46.302Z,19.09
2023-04-21T15:52:15.518Z,19.04
2023-04-21T15:54:47.691Z,19.27
2023-04-21T15:57:16.710Z,19.28
2023-04-21T15:59:45.386Z,19.53
2023-04-21T16:02:16.036Z,19.08
2023-04-21T16:04:45.647Z,19.21
2023-04-21T16:07:15.162Z,19.17
2023-04-21T16:09:44.803Z,19.02
2023-04-21T16:12:13.575Z,18.77
2023-04-21T16:14:54.325Z,18.64
2023-04-21T16:17:29.310Z,18.59
2023-04-21T16:19:58.597Z,18.64
2023-04-21T16:22:27.672Z,18.79
2023-04-21T16:24:58.901Z,18.49
2023-04-21T16:27:27.845Z,18.43
2023-04-21T16:29:56.818Z,18.45
2023-04-21T16:32:26.318Z,18.17
2023-04-21T16:34:56.412Z,17.94
2023-04-21T16:37:25.433Z,18.05
2023-04-21T16:39:54.346Z,17.83
2023-04-21T16:42:23.312Z,17.30
2023-04-21T16:44:58.673Z,17.80
2023-04-21T16:47:27.644Z,17.73
2023-04-21T16:49:58.065Z,17.78
2023-04-21T16:52:27.581Z,17.84
2023-04-21T16:54:59.664Z,17.74
2023-04-21T16:57:31.452Z,17.77
2023-04-21T17:00:00.680Z,17.67
2023-04-21T17:02:29.589Z,17.75
2023-04-21T17:04:59.997Z,17.65
2023-04-21T17:07:29.211Z,17.19
2023-04-21T17:09:58.041Z,16.92
2023-04-21T17:12:27.036Z,16.73
2023-04-21T17:14:55.976Z,16.63
2023-04-21T17:17:25.322Z,16.45
2023-04-21T17:19:54.829Z,16.26
2023-04-21T17:22:24.986Z,16.03
2023-04-21T17:24:54.282Z,15.95
2023-04-21T17:27:23.390Z,15.85
2023-04-21T17:29:51.759Z,15.70
2023-04-21T17:32:20.932Z,15.62
2023-04-21T17:34:49.488Z,15.58
2023-04-21T17:37:18.242Z,15.37
2023-04-21T17:39:48.446Z,15.27
2023-04-21T17:42:17.367Z,15.18
2023-04-21T17:44:46.102Z,14.98
2023-04-21T17:47:15.094Z,14.87
2023-04-21T17:49:44.668Z,14.79
2023-04-21T17:52:15.451Z,14.73
2023-04-21T17:54:45.997Z,14.67
2023-04-21T17:57:16.568Z,14.58
2023-04-21T17:59:45.014Z,14.46
2023-04-21T18:02:14.004Z,14.37
2023-04-21T18:04:43.777Z,14.30
2023-04-21T18:07:15.486Z,14.22
2023-04-21T18:09:50.243Z,14.12
2023-04-21T18:12:20.852Z,14.05
2023-04-21T18:14:49.939Z,13.98
2023-04-21T18:17:18.582Z,13.90
2023-04-21T18:19:47.433Z,13.77
2023-04-21T18:22:16.535Z,13.55
2023-04-21T18:24:45.588Z,13.48
2023-04-21T18:27:15.235Z,13.40
2023-04-21T18:29:45.498Z,13.27
2023-04-21T18:32:14.504Z,13.16
2023-04-21T18:34:43.606Z,13.00
2023-04-21T18:37:12.820Z,12.79
2023-04-21T18:39:41.808Z,12.70
2023-04-21T18:42:10.539Z,12.62
2023-04-21T18:44:40.811Z,12.56
2023-04-21T18:47:11.839Z,12.51
2023-04-21T18:49:42.388Z,12.43
2023-04-21T18:52:11.129Z,12.32
2023-04-21T18:54:40.351Z,12.23
2023-04-21T18:57:09.713Z,12.12
2023-04-21T18:59:44.131Z,11.94
2023-04-21T19:02:17.399Z,11.90
2023-04-21T19:04:46.266Z,11.83
2023-04-21T19:07:15.992Z,11.75
2023-04-21T19:09:45.735Z,11.73
2023-04-21T19:12:14.921Z,11.69
2023-04-21T19:14:47.573Z,11.57
2023-04-21T19:17:18.991Z,11.45
2023-04-21T19:19:48.230Z,11.37
2023-04-21T19:22:17.275Z,11.32
2023-04-21T19:24:46.148Z,11.29
2023-04-21T19:27:15.100Z,11.29
2023-04-21T19:29:44.464Z,11.26
2023-04-21T19:32:15.617Z,11.22
2023-04-21T19:34:45.527Z,11.19
2023-04-21T19:37:14.823Z,11.12
2023-04-21T19:39:43.728Z,11.07
2023-04-21T19:42:12.890Z,11.02
2023-04-21T19:44:41.695Z,10.96
2023-04-21T19:47:10.723Z,10.96
2023-04-21T19:49:39.524Z,10.87
2023-04-21T19:52:09.873Z,10.85
2023-04-21T19:54:38.961Z,10.85
2023-04-21T19:57:08.311Z,10.79
2023-04-21T19:59:37.370Z,10.67
2023-04-21T20:02:07.297Z,10.62
2023-04-21T20:04:37.771Z,10.58
2023-04-21T20:07:08.765Z,10.56
2023-04-21T20:09:37.816Z,10.57
2023-04-21T20:12:07.436Z,10.51
2023-04-21T20:14:36.776Z,10.49
2023-04-21T20:17:05.620Z,10.40
2023-04-21T20:19:35.961Z,10.31
2023-04-21T20:22:05.447Z,10.24
2023-04-21T20:24:38.861Z,10.19
2023-04-21T20:27:08.867Z,10.12
2023-04-21T20:29:38.034Z,10.14
2023-04-21T20:32:06.855Z,10.06
2023-04-21T20:34:36.609Z,10.00
2023-04-21T20:37:06.030Z,9.93
2023-04-21T20:39:35.361Z,9.79
2023-04-21T20:42:12.530Z,9.75
2023-04-21T20:44:43.364Z,9.65
2023-04-21T20:47:12.662Z,9.50
2023-04-21T20:49:41.548Z,9.34
2023-04-21T20:52:10.982Z,9.28
2023-04-21T20:54:43.683Z,9.26
2023-04-21T20:57:14.367Z,9.20
2023-04-21T20:59:42.982Z,9.23
2023-04-21T21:02:12.002Z,9.21
2023-04-21T21:04:41.288Z,9.20
2023-04-21T21:07:10.392Z,9.09
2023-04-21T21:09:39.942Z,8.73
2023-04-21T21:12:09.625Z,9.10
2023-04-21T21:14:39.514Z,9.05
2023-04-21T21:17:08.578Z,8.96
2023-04-21T21:19:37.548Z,8.93
2023-04-21T21:22:06.267Z,8.88
2023-04-21T21:24:35.125Z,8.84
2023-04-21T21:27:04.421Z,8.78
2023-04-21T21:29:34.030Z,8.76
2023-04-21T21:32:03.984Z,8.74
2023-04-21T21:34:32.846Z,8.76
2023-04-21T21:37:01.657Z,8.77
2023-04-21T21:39:30.636Z,8.73
2023-04-21T21:41:59.271Z,8.74
2023-04-21T21:44:27.890Z,8.78
2023-04-21T21:46:56.578Z,8.81
2023-04-21T21:49:27.078Z,8.80
2023-04-21T21:51:56.395Z,8.78
2023-04-21T21:54:24.899Z,8.73
2023-04-21T21:56:54.062Z,8.71
2023-04-21T21:59:22.677Z,8.65
2023-04-21T22:01:52.717Z,8.53
2023-04-21T22:04:21.284Z,8.43
2023-04-21T22:06:52.313Z,8.40
2023-04-21T22:09:21.167Z,8.42
2023-04-21T22:11:50.928Z,8.40
2023-04-21T22:14:23.203Z,8.41
2023-04-21T22:16:53.310Z,8.41
2023-04-21T22:19:22.919Z,8.45
2023-04-21T22:21:53.297Z,8.44
2023-04-21T22:24:22.276Z,8.43
2023-04-21T22:26:52.172Z,8.40
2023-04-21T22:29:21.435Z,8.36
2023-04-21T22:31:50.583Z,8.30
2023-04-21T22:34:20.063Z,8.26
2023-04-21T22:36:49.425Z,8.24
2023-04-21T22:39:20.121Z,8.01
2023-04-21T22:41:48.963Z,8.20
2023-04-21T22:44:19.497Z,8.16
2023-04-21T22:46:48.837Z,8.13
2023-04-21T22:49:18.615Z,8.07
2023-04-21T22:51:47.784Z,8.03
2023-04-21T22:54:16.809Z,7.97
2023-04-21T22:56:46.892Z,7.94
2023-04-21T22:59:15.609Z,7.93
2023-04-21T23:01:44.880Z,7.88
2023-04-21T23:04:14.013Z,7.80
2023-04-21T23:06:46.621Z,7.77
2023-04-21T23:09:16.179Z,7.75
2023-04-21T23:11:46.510Z,7.75
2023-04-21T23:14:15.942Z,7.74
2023-04-21T23:16:44.654Z,7.64
2023-04-21T23:19:13.544Z,7.70
2023-04-21T23:21:42.359Z,7.66
2023-04-21T23:24:11.010Z,7.63
2023-04-21T23:26:39.603Z,7.60
2023-04-21T23:29:09.993Z,7.57
2023-04-21T23:31:39.005Z,7.53
2023-04-21T23:34:08.381Z,7.52
2023-04-21T23:36:37.383Z,7.48
2023-04-21T23:39:06.380Z,7.46
2023-04-21T23:41:35.122Z,7.42
2023-04-21T23:44:04.019Z,7.39
2023-04-21T23:46:34.242Z,7.39
2023-04-21T23:49:03.238Z,7.34
2023-04-21T23:51:32.039Z,7.33
2023-04-21T23:54:01.966Z,7.32
2023-04-21T23:56:31.079Z,7.29
2023-04-21T23:59:00.139Z,7.22
